Terminal Aerodrome Forecast
Issued by NWS Northern Indiana

Home | Current Version | Previous Version | Graphics & Text | Print | Product List | Glossary On
Versions: 1 2 3 4 5 6 7 8 9 10 11 12 13 14 15 16 17 18 19 20 21 22
000
FTUS43 KIWX 221300 AAA
TAFFWA
TAF AMD
KFWA 221309Z 2213/2312 23010KT P6SM BKN040
      TEMPO 2213/2215 6SM -SHRA
     FM221500 24006KT P6SM BKN050
     FM230900 VRB03KT 5SM BR SCT003
      TEMPO 2309/2312 2SM BR BKN003=

USA.gov is the U.S. government's official web portal to all federal, state and local government web resources and services.